Time;durP1;ratioP1;P1;durP2;ratioP2;P2;SDS_P1;SDS_P2;PMS_P1;PMS_P2;Temp;Humidity;BMP_temperature;BMP_pressure;BME280_temperature;BME280_humidity;BME280_pressure;Samples;Min_cycle;Max_cycle;Signal;HPM_P1;HPM_P2
2023/08/06 00:00:08;;;;;;;1.02;1.02;;;;;;;;;;5018126;28;20076;-67
2023/08/06 00:02:34;;;;;;;1.42;1.33;;;;;;;;;;5020109;28;20065;-67
2023/08/06 00:05:00;;;;;;;1.90;1.80;;;;;;;;;;5018831;28;20087;-67
2023/08/06 00:07:26;;;;;;;1.77;1.67;;;;;;;;;;5016549;28;20042;-67
2023/08/06 00:09:52;;;;;;;1.30;1.20;;;;;;;;;;5016186;28;20061;-67
2023/08/06 00:12:18;;;;;;;1.60;1.50;;;;;;;;;;5017526;28;20042;-67
2023/08/06 00:14:44;;;;;;;1.08;1.08;;;;;;;;;;5019591;28;20099;-67
2023/08/06 00:17:10;;;;;;;1.25;1.15;;;;;;;;;;5017542;28;20075;-67
2023/08/06 00:19:37;;;;;;;0.80;0.68;;;;;;;;;;5016957;28;20038;-67
2023/08/06 00:22:03;;;;;;;0.75;0.75;;;;;;;;;;5016114;28;20042;-67
2023/08/06 00:24:29;;;;;;;0.70;0.70;;;;;;;;;;5017575;28;20125;-67
2023/08/06 00:26:55;;;;;;;1.02;0.90;;;;;;;;;;5019402;28;20132;-67
2023/08/06 00:29:21;;;;;;;0.63;0.63;;;;;;;;;;5018937;28;20541;-67
2023/08/06 00:31:47;;;;;;;0.70;0.70;;;;;;;;;;5015674;28;20077;-67
2023/08/06 00:34:13;;;;;;;0.90;0.90;;;;;;;;;;5015573;28;20128;-67
2023/08/06 00:36:40;;;;;;;1.08;0.70;;;;;;;;;;5013800;28;20069;-67
2023/08/06 00:39:07;;;;;;;0.50;0.50;;;;;;;;;;5014594;28;20040;-67
2023/08/06 00:41:33;;;;;;;0.85;0.60;;;;;;;;;;5015805;28;20077;-67
2023/08/06 00:43:59;;;;;;;0.75;0.75;;;;;;;;;;5015897;28;20042;-67
2023/08/06 00:46:25;;;;;;;0.47;0.47;;;;;;;;;;5014768;28;20053;-67
2023/08/06 00:48:51;;;;;;;0.70;0.52;;;;;;;;;;5022086;28;20600;-67
2023/08/06 00:51:17;;;;;;;0.80;0.80;;;;;;;;;;5013954;28;20038;-67
2023/08/06 00:53:43;;;;;;;0.90;0.90;;;;;;;;;;5014048;28;20077;-67
2023/08/06 00:56:11;;;;;;;0.82;0.73;;;;;;;;;;5018111;28;20049;-67
2023/08/06 00:58:37;;;;;;;1.45;1.35;;;;;;;;;;5018952;28;20041;-67
2023/08/06 01:01:03;;;;;;;1.10;1.00;;;;;;;;;;5014899;28;20045;-67
2023/08/06 01:03:29;;;;;;;1.70;0.70;;;;;;;;;;5015730;28;20077;-67
2023/08/06 01:05:55;;;;;;;0.90;0.90;;;;;;;;;;5021799;28;20099;-67
2023/08/06 01:08:40;;;;;;;0.95;0.80;;;;;;;;;;5017488;28;20041;-67
2023/08/06 01:11:15;;;;;;;0.75;0.75;;;;;;;;;;5018218;28;20077;-67
2023/08/06 01:13:49;;;;;;;1.15;0.70;;;;;;;;;;5014566;28;20046;-67
2023/08/06 01:16:19;;;;;;;1.50;1.40;;;;;;;;;;5016033;28;20053;-67
2023/08/06 01:18:49;;;;;;;1.27;1.05;;;;;;;;;;5018328;28;20483;-67
2023/08/06 01:21:15;;;;;;;0.88;0.88;;;;;;;;;;5017401;28;20048;-67
2023/08/06 01:23:42;;;;;;;1.23;1.13;;;;;;;;;;5013999;28;20543;-67
2023/08/06 01:26:24;;;;;;;1.40;1.30;;;;;;;;;;5014978;28;20052;-67
2023/08/06 01:29:10;;;;;;;1.30;1.20;;;;;;;;;;5014555;28;20042;-67
2023/08/06 01:31:42;;;;;;;1.27;1.17;;;;;;;;;;5004734;28;20496;-67
2023/08/06 01:34:09;;;;;;;1.08;0.98;;;;;;;;;;5015025;28;20732;-67
2023/08/06 01:36:36;;;;;;;1.02;1.02;;;;;;;;;;5015793;28;20034;-67
2023/08/06 01:39:02;;;;;;;0.80;0.80;;;;;;;;;;5010951;28;20052;-67
2023/08/06 01:41:28;;;;;;;0.88;0.85;;;;;;;;;;5017762;28;20394;-67
2023/08/06 01:43:54;;;;;;;0.68;0.68;;;;;;;;;;5015625;28;20049;-67
2023/08/06 01:46:20;;;;;;;0.82;0.80;;;;;;;;;;5014718;28;20179;-67
2023/08/06 01:48:46;;;;;;;0.57;0.57;;;;;;;;;;5014733;28;20149;-67
2023/08/06 01:51:12;;;;;;;0.55;0.50;;;;;;;;;;5017682;28;20087;-67
2023/08/06 01:53:38;;;;;;;0.95;0.90;;;;;;;;;;5018222;28;20092;-67
2023/08/06 01:56:04;;;;;;;0.80;0.80;;;;;;;;;;5015205;28;20049;-67
2023/08/06 01:58:30;;;;;;;1.30;1.20;;;;;;;;;;5019392;28;20037;-67
2023/08/06 02:00:56;;;;;;;1.10;1.00;;;;;;;;;;5017724;28;20115;-67
2023/08/06 02:03:22;;;;;;;1.02;0.93;;;;;;;;;;5017096;28;20731;-67
2023/08/06 02:05:48;;;;;;;1.08;1.00;;;;;;;;;;5017728;28;20045;-67
2023/08/06 02:08:14;;;;;;;0.80;0.80;;;;;;;;;;5015256;28;20048;-67
2023/08/06 02:10:41;;;;;;;1.00;0.70;;;;;;;;;;5013722;28;20396;-67
2023/08/06 02:13:07;;;;;;;1.25;0.88;;;;;;;;;;5013323;28;20144;-67
2023/08/06 02:15:33;;;;;;;0.82;0.82;;;;;;;;;;5016969;28;20832;-67
2023/08/06 02:17:59;;;;;;;0.80;0.80;;;;;;;;;;5017045;28;20106;-67
2023/08/06 02:20:25;;;;;;;0.82;0.70;;;;;;;;;;5013936;28;20045;-67
2023/08/06 02:22:51;;;;;;;0.75;0.75;;;;;;;;;;5014168;28;20057;-67
2023/08/06 02:25:17;;;;;;;0.60;0.60;;;;;;;;;;5013279;28;20046;-67
2023/08/06 02:27:43;;;;;;;1.27;1.20;;;;;;;;;;5016391;28;20068;-67
2023/08/06 02:30:09;;;;;;;0.70;0.60;;;;;;;;;;5017466;28;20057;-67
2023/08/06 02:32:35;;;;;;;0.82;0.82;;;;;;;;;;5013465;28;20041;-67
2023/08/06 02:35:02;;;;;;;0.55;0.55;;;;;;;;;;5011325;28;20119;-67
2023/08/06 02:37:28;;;;;;;0.80;0.80;;;;;;;;;;5014598;28;20045;-67
2023/08/06 02:39:54;;;;;;;1.65;1.10;;;;;;;;;;5006470;28;20056;-67
2023/08/06 02:42:20;;;;;;;0.88;0.88;;;;;;;;;;5015302;28;20045;-67
2023/08/06 02:44:46;;;;;;;1.00;0.90;;;;;;;;;;5014842;28;20060;-67
2023/08/06 02:47:12;;;;;;;1.08;1.02;;;;;;;;;;5013497;28;20048;-67
2023/08/06 02:49:38;;;;;;;0.80;0.80;;;;;;;;;;5012173;28;20042;-67
2023/08/06 02:52:04;;;;;;;0.70;0.70;;;;;;;;;;5014668;28;20696;-67
2023/08/06 02:54:31;;;;;;;1.80;0.98;;;;;;;;;;5016831;28;20671;-67
2023/08/06 02:56:57;;;;;;;0.70;0.70;;;;;;;;;;5015499;28;20084;-67
2023/08/06 02:59:23;;;;;;;0.70;0.70;;;;;;;;;;5018415;28;20042;-67
2023/08/06 03:01:49;;;;;;;0.60;0.60;;;;;;;;;;5009702;28;20498;-67
2023/08/06 03:04:15;;;;;;;0.60;0.60;;;;;;;;;;5007858;28;20045;-67
2023/08/06 03:06:41;;;;;;;0.70;0.70;;;;;;;;;;5011376;28;20132;-67
2023/08/06 03:09:07;;;;;;;0.98;0.90;;;;;;;;;;5015637;28;20041;-67
2023/08/06 03:11:33;;;;;;;0.88;0.88;;;;;;;;;;5008064;28;20041;-67
2023/08/06 03:13:59;;;;;;;0.90;0.88;;;;;;;;;;5016061;28;20041;-67
2023/08/06 03:16:25;;;;;;;0.50;0.50;;;;;;;;;;5013629;28;20438;-67
2023/08/06 03:18:51;;;;;;;0.70;0.70;;;;;;;;;;5013213;28;20045;-67
2023/08/06 03:21:17;;;;;;;0.63;0.63;;;;;;;;;;5013068;28;20053;-67
2023/08/06 03:23:43;;;;;;;0.60;0.60;;;;;;;;;;5015412;28;20057;-67
2023/08/06 03:26:09;;;;;;;0.52;0.52;;;;;;;;;;5018586;28;20060;-67
2023/08/06 03:28:35;;;;;;;0.82;0.82;;;;;;;;;;5016014;28;20045;-67
2023/08/06 03:31:01;;;;;;;0.60;0.60;;;;;;;;;;5015405;28;20100;-67
2023/08/06 03:33:27;;;;;;;0.60;0.60;;;;;;;;;;5017473;28;20053;-67
2023/08/06 03:35:53;;;;;;;0.43;0.43;;;;;;;;;;5019575;28;20040;-67
2023/08/06 03:38:19;;;;;;;0.40;0.40;;;;;;;;;;5020000;28;20388;-67
2023/08/06 03:40:46;;;;;;;0.30;0.30;;;;;;;;;;5018055;28;20100;-67
2023/08/06 03:43:12;;;;;;;0.40;0.40;;;;;;;;;;5016267;28;20034;-67
2023/08/06 03:45:38;;;;;;;0.85;0.60;;;;;;;;;;5017481;28;20046;-67
2023/08/06 03:48:05;;;;;;;0.80;0.80;;;;;;;;;;5018925;28;20583;-67
2023/08/06 03:50:31;;;;;;;0.70;0.70;;;;;;;;;;5020179;28;20124;-67
2023/08/06 03:52:57;;;;;;;0.55;0.55;;;;;;;;;;5017995;28;20557;-67
2023/08/06 03:55:23;;;;;;;0.65;0.65;;;;;;;;;;5014137;28;20050;-67
2023/08/06 03:57:49;;;;;;;0.98;0.98;;;;;;;;;;5016956;28;20054;-67
2023/08/06 04:00:15;;;;;;;0.57;0.57;;;;;;;;;;5019694;28;20037;-67
2023/08/06 04:02:41;;;;;;;1.42;0.77;;;;;;;;;;5025717;28;20044;-67
2023/08/06 04:05:07;;;;;;;0.60;0.60;;;;;;;;;;5017976;28;20052;-67
2023/08/06 04:07:33;;;;;;;0.80;0.80;;;;;;;;;;5020017;28;20083;-67
2023/08/06 04:10:00;;;;;;;0.65;0.65;;;;;;;;;;5019305;28;20071;-67
2023/08/06 04:12:26;;;;;;;0.98;0.98;;;;;;;;;;5016824;28;20053;-67
2023/08/06 04:14:53;;;;;;;0.80;0.80;;;;;;;;;;5019640;28;20044;-67
2023/08/06 04:17:20;;;;;;;0.90;0.90;;;;;;;;;;5017007;28;20517;-67
2023/08/06 04:19:47;;;;;;;0.77;0.77;;;;;;;;;;5016482;28;20042;-67
2023/08/06 04:22:14;;;;;;;0.80;0.80;;;;;;;;;;5016038;28;20077;-67
2023/08/06 04:24:40;;;;;;;0.82;0.70;;;;;;;;;;5015657;28;20037;-67
2023/08/06 04:27:06;;;;;;;0.70;0.70;;;;;;;;;;5016287;28;20064;-67
2023/08/06 04:29:32;;;;;;;0.50;0.50;;;;;;;;;;5018276;28;20034;-67
2023/08/06 04:31:58;;;;;;;0.57;0.57;;;;;;;;;;5025114;28;20037;-67
2023/08/06 04:34:24;;;;;;;0.60;0.60;;;;;;;;;;5017420;28;20046;-67
2023/08/06 04:36:50;;;;;;;0.40;0.40;;;;;;;;;;5014523;28;20049;-67
2023/08/06 04:39:16;;;;;;;0.90;0.80;;;;;;;;;;5017873;28;20060;-67
2023/08/06 04:41:42;;;;;;;0.70;0.60;;;;;;;;;;5018007;28;20049;-67
2023/08/06 04:44:08;;;;;;;0.73;0.73;;;;;;;;;;5019097;28;20041;-67
2023/08/06 04:46:34;;;;;;;0.93;0.93;;;;;;;;;;5018434;28;20034;-67
2023/08/06 04:49:00;;;;;;;0.65;0.60;;;;;;;;;;5016500;28;20084;-67
2023/08/06 04:51:26;;;;;;;0.70;0.70;;;;;;;;;;5014962;28;20046;-67
2023/08/06 04:53:52;;;;;;;1.30;1.00;;;;;;;;;;5015068;28;20232;-67
2023/08/06 04:56:18;;;;;;;0.90;0.90;;;;;;;;;;5024395;28;20046;-67
2023/08/06 04:58:44;;;;;;;1.33;1.23;;;;;;;;;;5011945;28;20057;-67
2023/08/06 05:01:10;;;;;;;1.00;1.00;;;;;;;;;;5025849;28;20049;-67
2023/08/06 05:03:36;;;;;;;0.70;0.70;;;;;;;;;;5018996;28;20403;-67
2023/08/06 05:06:02;;;;;;;0.82;0.82;;;;;;;;;;5010417;28;20045;-67
2023/08/06 05:08:28;;;;;;;0.95;0.95;;;;;;;;;;5018951;28;20038;-67
2023/08/06 05:10:55;;;;;;;0.70;0.70;;;;;;;;;;5018703;28;20128;-67
2023/08/06 05:13:21;;;;;;;0.80;0.80;;;;;;;;;;5016288;28;20049;-67
2023/08/06 05:15:47;;;;;;;0.65;0.65;;;;;;;;;;5021313;28;20042;-67
2023/08/06 05:18:13;;;;;;;1.17;1.10;;;;;;;;;;5015284;28;20049;-67
2023/08/06 05:20:40;;;;;;;0.82;0.82;;;;;;;;;;5019761;28;20073;-67
2023/08/06 05:23:06;;;;;;;2.17;1.33;;;;;;;;;;5014400;28;20048;-67
2023/08/06 05:25:32;;;;;;;1.17;1.08;;;;;;;;;;5011041;28;20042;-67
2023/08/06 05:27:58;;;;;;;1.05;1.02;;;;;;;;;;5018730;28;20056;-67
2023/08/06 05:30:24;;;;;;;0.95;0.95;;;;;;;;;;5017098;28;20622;-67
2023/08/06 05:32:50;;;;;;;0.80;0.80;;;;;;;;;;5016809;28;20045;-67
2023/08/06 05:35:16;;;;;;;0.68;0.68;;;;;;;;;;5016927;28;20044;-65
2023/08/06 05:37:42;;;;;;;1.00;1.00;;;;;;;;;;5015874;28;20183;-66
2023/08/06 05:40:08;;;;;;;1.23;0.85;;;;;;;;;;5014826;28;20068;-66
2023/08/06 05:42:34;;;;;;;1.25;1.15;;;;;;;;;;5021539;28;20060;-67
2023/08/06 05:45:00;;;;;;;0.98;0.98;;;;;;;;;;5016992;28;20045;-67
2023/08/06 05:47:26;;;;;;;0.52;0.52;;;;;;;;;;5017953;28;20144;-66
2023/08/06 05:49:52;;;;;;;0.60;0.60;;;;;;;;;;5013842;28;20052;-67
2023/08/06 05:52:18;;;;;;;1.00;1.00;;;;;;;;;;5012589;28;20041;-66
2023/08/06 05:54:44;;;;;;;0.90;0.90;;;;;;;;;;5013850;28;20274;-66
2023/08/06 05:57:10;;;;;;;0.77;0.77;;;;;;;;;;5016988;28;20048;-66
2023/08/06 05:59:36;;;;;;;1.30;1.20;;;;;;;;;;5017150;28;20053;-66
2023/08/06 06:02:02;;;;;;;0.80;0.80;;;;;;;;;;5014580;28;20170;-66
2023/08/06 06:04:29;;;;;;;0.93;0.93;;;;;;;;;;5014625;28;20121;-67
2023/08/06 06:06:55;;;;;;;0.80;0.80;;;;;;;;;;5014391;28;20134;-66
2023/08/06 06:09:21;;;;;;;0.60;0.60;;;;;;;;;;5016281;28;20467;-66
2023/08/06 06:11:49;;;;;;;0.88;0.88;;;;;;;;;;5017469;28;20073;-66
2023/08/06 06:14:15;;;;;;;0.63;0.63;;;;;;;;;;5015250;28;20061;-66
2023/08/06 06:16:40;;;;;;;0.50;0.50;;;;;;;;;;5013526;28;20111;-66
2023/08/06 06:19:06;;;;;;;0.75;0.60;;;;;;;;;;5012572;28;20064;-66
2023/08/06 06:21:33;;;;;;;0.40;0.40;;;;;;;;;;5017109;28;20037;-66
2023/08/06 06:23:58;;;;;;;0.60;0.60;;;;;;;;;;5014586;28;20045;-67
2023/08/06 06:26:25;;;;;;;0.30;0.30;;;;;;;;;;5015540;28;20045;-66
2023/08/06 06:28:51;;;;;;;0.73;0.73;;;;;;;;;;5013221;28;20411;-67
2023/08/06 06:31:17;;;;;;;0.50;0.50;;;;;;;;;;5012986;28;20152;-66
2023/08/06 06:33:43;;;;;;;1.50;1.40;;;;;;;;;;5016311;28;20077;-66
2023/08/06 06:36:09;;;;;;;1.02;0.93;;;;;;;;;;5016694;28;20451;-66
2023/08/06 06:38:35;;;;;;;1.17;0.90;;;;;;;;;;5015592;28;20065;-66
2023/08/06 06:41:03;;;;;;;0.65;0.65;;;;;;;;;;5014088;28;20045;-66
2023/08/06 06:43:29;;;;;;;0.60;0.60;;;;;;;;;;5014257;28;20064;-66
2023/08/06 06:45:58;;;;;;;0.70;0.70;;;;;;;;;;5015904;28;20049;-66
2023/08/06 06:48:29;;;;;;;0.70;0.70;;;;;;;;;;5016812;28;20120;-66
2023/08/06 06:50:55;;;;;;;1.02;1.02;;;;;;;;;;5013163;28;20049;-66
2023/08/06 06:53:23;;;;;;;1.27;1.20;;;;;;;;;;5015571;28;20111;-67
2023/08/06 06:55:49;;;;;;;0.98;0.88;;;;;;;;;;5014174;28;20053;-66
2023/08/06 06:58:16;;;;;;;1.05;0.73;;;;;;;;;;5020158;28;20483;-67
2023/08/06 07:00:42;;;;;;;0.68;0.68;;;;;;;;;;5017348;28;20041;-67
2023/08/06 07:03:08;;;;;;;0.80;0.80;;;;;;;;;;5019778;28;20124;-66
2023/08/06 07:05:34;;;;;;;1.00;1.00;;;;;;;;;;5021346;28;20435;-66
2023/08/06 07:08:00;;;;;;;1.35;1.25;;;;;;;;;;5017215;28;20096;-66
2023/08/06 07:10:26;;;;;;;1.55;1.00;;;;;;;;;;5017635;28;20041;-66
2023/08/06 07:12:52;;;;;;;0.90;0.90;;;;;;;;;;5016955;28;20417;-67
2023/08/06 07:15:18;;;;;;;0.63;0.63;;;;;;;;;;5018421;28;20470;-67
2023/08/06 07:17:44;;;;;;;0.82;0.82;;;;;;;;;;5022326;28;20468;-67
2023/08/06 07:20:11;;;;;;;0.80;0.80;;;;;;;;;;5011418;28;20480;-66
2023/08/06 07:22:37;;;;;;;1.05;0.95;;;;;;;;;;5017131;28;20121;-66
2023/08/06 07:25:03;;;;;;;0.88;0.88;;;;;;;;;;5017918;28;20128;-66
2023/08/06 07:27:29;;;;;;;0.75;0.70;;;;;;;;;;5017228;28;20495;-66
2023/08/06 07:29:55;;;;;;;0.70;0.70;;;;;;;;;;5015235;28;20164;-67
2023/08/06 07:32:21;;;;;;;0.63;0.63;;;;;;;;;;5019682;28;20120;-66
2023/08/06 07:34:47;;;;;;;1.02;0.98;;;;;;;;;;5020506;28;20041;-66
2023/08/06 07:37:13;;;;;;;1.08;1.02;;;;;;;;;;5013222;28;20395;-66
2023/08/06 07:39:41;;;;;;;1.40;1.30;;;;;;;;;;5017160;28;20038;-65
2023/08/06 07:42:07;;;;;;;1.35;1.25;;;;;;;;;;5017485;28;20145;-66
2023/08/06 07:44:33;;;;;;;1.33;1.20;;;;;;;;;;5020347;28;20037;-67
2023/08/06 07:46:59;;;;;;;0.80;0.80;;;;;;;;;;5015521;28;20077;-67
2023/08/06 07:49:25;;;;;;;1.52;1.42;;;;;;;;;;5011182;28;20069;-66
2023/08/06 07:51:52;;;;;;;1.38;1.27;;;;;;;;;;5013884;28;20125;-66
2023/08/06 07:54:18;;;;;;;0.93;0.88;;;;;;;;;;5017332;28;20065;-67
2023/08/06 07:56:44;;;;;;;1.42;1.33;;;;;;;;;;5021252;28;20438;-66
2023/08/06 07:59:10;;;;;;;1.30;1.20;;;;;;;;;;5015892;28;20116;-66
2023/08/06 08:01:36;;;;;;;1.02;1.02;;;;;;;;;;5013025;28;20115;-67
2023/08/06 08:04:04;;;;;;;1.40;1.30;;;;;;;;;;5019214;28;20281;-66
2023/08/06 08:06:30;;;;;;;1.33;1.23;;;;;;;;;;5018806;28;20063;-67
2023/08/06 08:08:56;;;;;;;1.40;1.30;;;;;;;;;;5015114;28;20544;-67
2023/08/06 08:11:22;;;;;;;0.95;0.95;;;;;;;;;;5010741;28;20042;-64
2023/08/06 08:13:48;;;;;;;1.63;1.52;;;;;;;;;;5010824;28;20261;-63
2023/08/06 08:16:14;;;;;;;1.17;1.13;;;;;;;;;;5012285;28;20042;-61
2023/08/06 08:18:40;;;;;;;1.30;1.20;;;;;;;;;;5017478;28;20087;-64
2023/08/06 08:21:06;;;;;;;0.95;0.95;;;;;;;;;;5016093;28;20042;-66
2023/08/06 08:23:33;;;;;;;1.15;1.05;;;;;;;;;;5007015;28;20048;-66
2023/08/06 08:25:59;;;;;;;1.40;1.30;;;;;;;;;;5005211;28;20042;-66
2023/08/06 08:28:25;;;;;;;0.80;0.80;;;;;;;;;;5018191;28;20045;-66
2023/08/06 08:30:51;;;;;;;1.13;1.00;;;;;;;;;;5008279;28;20045;-66
2023/08/06 08:33:17;;;;;;;1.40;1.30;;;;;;;;;;5012325;28;20089;-66
2023/08/06 08:35:43;;;;;;;1.23;1.05;;;;;;;;;;5011990;28;20519;-66
2023/08/06 08:38:09;;;;;;;0.77;0.77;;;;;;;;;;5009555;28;20133;-66
2023/08/06 08:40:38;;;;;;;1.20;1.10;;;;;;;;;;5019141;28;20037;-66
2023/08/06 08:43:05;;;;;;;0.80;0.80;;;;;;;;;;5011892;28;20526;-65
2023/08/06 08:45:34;;;;;;;0.90;0.90;;;;;;;;;;5014718;28;20041;-66
2023/08/06 08:48:01;;;;;;;1.15;0.93;;;;;;;;;;5012511;28;20575;-65
2023/08/06 08:50:27;;;;;;;0.88;0.88;;;;;;;;;;5012707;28;20030;-63
2023/08/06 08:52:53;;;;;;;1.23;1.13;;;;;;;;;;5012099;28;20093;-62
2023/08/06 08:55:21;;;;;;;1.45;1.05;;;;;;;;;;5010360;28;20245;-65
2023/08/06 08:57:47;;;;;;;0.50;0.50;;;;;;;;;;5017475;28;20134;-65
2023/08/06 09:00:14;;;;;;;1.42;1.33;;;;;;;;;;5017403;28;20429;-65
2023/08/06 09:02:40;;;;;;;1.00;0.90;;;;;;;;;;5017965;28;20052;-65
2023/08/06 09:05:07;;;;;;;1.42;0.80;;;;;;;;;;5017376;28;20523;-66
2023/08/06 09:07:36;;;;;;;0.90;0.90;;;;;;;;;;5016444;28;20041;-65
2023/08/06 09:10:06;;;;;;;1.05;0.95;;;;;;;;;;5012852;28;20085;-65
2023/08/06 09:12:32;;;;;;;1.08;1.05;;;;;;;;;;5016356;28;20041;-65
2023/08/06 09:14:58;;;;;;;2.05;1.27;;;;;;;;;;5016288;28;20061;-65
2023/08/06 09:17:24;;;;;;;2.60;1.30;;;;;;;;;;5017806;28;20578;-65
2023/08/06 09:19:50;;;;;;;1.08;0.98;;;;;;;;;;5016341;28;20464;-65
2023/08/06 09:22:16;;;;;;;0.45;0.45;;;;;;;;;;5015841;28;20456;-65
2023/08/06 09:24:43;;;;;;;0.70;0.70;;;;;;;;;;5019428;28;20057;-65
2023/08/06 09:27:15;;;;;;;0.70;0.70;;;;;;;;;;5013713;28;20033;-65
2023/08/06 09:29:45;;;;;;;0.98;0.77;;;;;;;;;;5011065;28;20042;-65
2023/08/06 09:32:12;;;;;;;0.93;0.93;;;;;;;;;;5011505;28;20463;-65
2023/08/06 09:34:39;;;;;;;0.65;0.65;;;;;;;;;;5010255;28;20103;-66
2023/08/06 09:37:05;;;;;;;0.80;0.50;;;;;;;;;;5012012;28;20044;-65
2023/08/06 09:39:31;;;;;;;0.75;0.70;;;;;;;;;;5016621;28;20037;-64
2023/08/06 09:42:01;;;;;;;0.60;0.60;;;;;;;;;;5011844;28;20084;-66
2023/08/06 09:44:28;;;;;;;0.60;0.60;;;;;;;;;;5013135;28;20037;-65
2023/08/06 09:46:54;;;;;;;1.15;1.05;;;;;;;;;;5013193;28;20508;-66
2023/08/06 09:49:22;;;;;;;0.73;0.73;;;;;;;;;;5011221;28;20034;-65
2023/08/06 09:51:53;;;;;;;0.60;0.60;;;;;;;;;;5009970;28;20041;-66
2023/08/06 09:54:19;;;;;;;0.50;0.50;;;;;;;;;;5012670;28;20104;-66
2023/08/06 09:56:46;;;;;;;0.55;0.55;;;;;;;;;;5023278;28;20049;-65
2023/08/06 09:59:12;;;;;;;0.60;0.60;;;;;;;;;;5015651;28;20431;-65
2023/08/06 10:01:38;;;;;;;0.70;0.70;;;;;;;;;;5014377;28;20033;-66
2023/08/06 10:04:05;;;;;;;0.65;0.50;;;;;;;;;;5010667;28;20463;-66
2023/08/06 10:06:35;;;;;;;0.70;0.60;;;;;;;;;;5015140;28;20465;-66
2023/08/06 10:09:01;;;;;;;0.43;0.40;;;;;;;;;;5018746;28;20534;-63
2023/08/06 10:11:29;;;;;;;0.40;0.40;;;;;;;;;;5007477;28;20129;-63
2023/08/06 10:14:07;;;;;;;0.70;0.70;;;;;;;;;;5007820;28;20041;-64
2023/08/06 10:16:36;;;;;;;0.30;0.30;;;;;;;;;;5019948;28;20033;-65
2023/08/06 10:19:04;;;;;;;0.73;0.40;;;;;;;;;;5020022;28;20038;-63
2023/08/06 10:21:34;;;;;;;0.45;0.40;;;;;;;;;;5017204;28;20037;-63
2023/08/06 10:24:01;;;;;;;0.47;0.47;;;;;;;;;;5016376;28;20133;-66
2023/08/06 10:26:28;;;;;;;0.40;0.40;;;;;;;;;;5006972;28;20045;-64
2023/08/06 10:28:55;;;;;;;0.45;0.45;;;;;;;;;;5014945;28;20041;-66
2023/08/06 10:31:21;;;;;;;0.50;0.47;;;;;;;;;;5013996;28;20387;-64
2023/08/06 10:33:48;;;;;;;0.40;0.40;;;;;;;;;;5017340;28;20042;-66
2023/08/06 10:36:15;;;;;;;0.30;0.30;;;;;;;;;;5012767;28;20146;-67
2023/08/06 10:38:45;;;;;;;0.50;0.50;;;;;;;;;;5008018;28;20068;-64
2023/08/06 10:41:15;;;;;;;0.50;0.50;;;;;;;;;;5014428;28;20045;-64
2023/08/06 10:43:43;;;;;;;0.68;0.68;;;;;;;;;;5011706;28;20127;-65
2023/08/06 10:46:10;;;;;;;0.65;0.65;;;;;;;;;;5014071;28;20053;-67
2023/08/06 10:48:37;;;;;;;0.40;0.40;;;;;;;;;;5008710;28;20543;-67
2023/08/06 10:51:04;;;;;;;0.40;0.40;;;;;;;;;;5013963;28;20391;-65
2023/08/06 10:53:30;;;;;;;0.40;0.40;;;;;;;;;;5015144;28;20043;-66
2023/08/06 10:55:56;;;;;;;0.50;0.50;;;;;;;;;;5012167;28;20422;-61
2023/08/06 10:58:22;;;;;;;0.57;0.57;;;;;;;;;;5013119;28;20530;-65
2023/08/06 11:00:48;;;;;;;0.85;0.45;;;;;;;;;;5015590;28;20638;-64
2023/08/06 11:03:15;;;;;;;0.40;0.40;;;;;;;;;;5013222;28;20448;-64
2023/08/06 11:05:41;;;;;;;0.40;0.40;;;;;;;;;;5008249;28;20045;-63
2023/08/06 11:08:07;;;;;;;0.70;0.70;;;;;;;;;;5008717;28;20509;-65
2023/08/06 11:10:33;;;;;;;0.90;0.82;;;;;;;;;;5008777;28;20041;-65
2023/08/06 11:13:07;;;;;;;0.50;0.50;;;;;;;;;;5007422;28;20060;-66
2023/08/06 11:15:33;;;;;;;0.40;0.40;;;;;;;;;;5010730;28;20539;-65
2023/08/06 11:17:59;;;;;;;0.43;0.30;;;;;;;;;;5007939;28;20444;-66
2023/08/06 11:20:25;;;;;;;0.60;0.60;;;;;;;;;;5016797;28;20073;-66
2023/08/06 11:22:51;;;;;;;0.60;0.60;;;;;;;;;;5009465;28;20060;-66
2023/08/06 11:25:21;;;;;;;0.50;0.50;;;;;;;;;;5007122;28;20049;-65
2023/08/06 11:27:48;;;;;;;0.40;0.40;;;;;;;;;;5011908;28;20396;-65
2023/08/06 11:30:14;;;;;;;0.40;0.40;;;;;;;;;;5007958;28;20052;-66
2023/08/06 11:32:47;;;;;;;0.55;0.52;;;;;;;;;;5006789;28;20128;-66
2023/08/06 11:35:14;;;;;;;0.50;0.50;;;;;;;;;;5008739;28;20053;-66
2023/08/06 11:37:40;;;;;;;0.40;0.40;;;;;;;;;;5014755;28;20037;-65
2023/08/06 11:40:09;;;;;;;1.35;0.60;;;;;;;;;;5013931;28;20511;-65
2023/08/06 11:42:35;;;;;;;0.40;0.40;;;;;;;;;;5019017;28;20096;-65
2023/08/06 11:45:03;;;;;;;0.43;0.43;;;;;;;;;;5017771;28;20045;-66
2023/08/06 11:47:29;;;;;;;0.40;0.40;;;;;;;;;;5015218;28;20097;-66
2023/08/06 11:49:55;;;;;;;0.60;0.60;;;;;;;;;;5014376;28;20045;-66
2023/08/06 11:52:23;;;;;;;0.73;0.50;;;;;;;;;;5020709;28;20056;-66
2023/08/06 11:55:12;;;;;;;0.43;0.43;;;;;;;;;;5013953;28;20503;-66
2023/08/06 11:57:39;;;;;;;0.50;0.50;;;;;;;;;;5016480;28;20084;-66
2023/08/06 12:00:07;;;;;;;0.40;0.40;;;;;;;;;;5015169;28;20187;-66
2023/08/06 12:02:37;;;;;;;0.50;0.50;;;;;;;;;;5017484;28;20045;-66
2023/08/06 12:05:09;;;;;;;0.40;0.40;;;;;;;;;;5019113;28;20582;-66
2023/08/06 12:07:37;;;;;;;0.47;0.47;;;;;;;;;;5010297;28;20050;-67
2023/08/06 12:10:04;;;;;;;1.38;0.57;;;;;;;;;;5008852;28;20046;-66
2023/08/06 12:12:30;;;;;;;1.15;0.88;;;;;;;;;;5012308;28;20049;-66
2023/08/06 12:14:56;;;;;;;0.77;0.77;;;;;;;;;;5011379;28;20049;-66
2023/08/06 12:17:23;;;;;;;0.80;0.80;;;;;;;;;;5013837;28;21240;-66
2023/08/06 12:19:49;;;;;;;0.50;0.50;;;;;;;;;;5008986;28;20188;-66
2023/08/06 12:22:15;;;;;;;0.73;0.70;;;;;;;;;;5013396;28;20052;-66
2023/08/06 12:24:45;;;;;;;0.85;0.60;;;;;;;;;;5018662;28;20140;-66
2023/08/06 12:27:11;;;;;;;0.80;0.40;;;;;;;;;;5011314;28;20053;-66
2023/08/06 12:29:38;;;;;;;0.60;0.60;;;;;;;;;;5015649;28;20587;-66
2023/08/06 12:32:04;;;;;;;0.77;0.50;;;;;;;;;;5009656;28;20046;-67
2023/08/06 12:34:30;;;;;;;0.40;0.40;;;;;;;;;;5016118;28;20050;-66
2023/08/06 12:36:56;;;;;;;0.50;0.50;;;;;;;;;;5017476;28;20072;-67
2023/08/06 12:39:22;;;;;;;0.50;0.50;;;;;;;;;;5014293;28;20140;-66
2023/08/06 12:41:48;;;;;;;0.63;0.55;;;;;;;;;;5020567;28;20120;-67
2023/08/06 12:44:14;;;;;;;0.70;0.68;;;;;;;;;;5021179;28;20518;-67
2023/08/06 12:46:40;;;;;;;1.13;0.50;;;;;;;;;;5015676;28;20052;-67
2023/08/06 12:49:06;;;;;;;0.50;0.50;;;;;;;;;;5014770;28;20033;-67
2023/08/06 12:51:33;;;;;;;0.93;0.77;;;;;;;;;;5013142;28;20038;-67
2023/08/06 12:53:59;;;;;;;0.65;0.60;;;;;;;;;;5016548;28;20057;-67
2023/08/06 12:56:26;;;;;;;0.50;0.50;;;;;;;;;;5013200;28;20377;-67
2023/08/06 12:58:52;;;;;;;1.05;0.95;;;;;;;;;;5014777;28;20051;-66
2023/08/06 13:01:18;;;;;;;0.75;0.45;;;;;;;;;;5012519;28;20141;-66
2023/08/06 13:03:44;;;;;;;0.47;0.47;;;;;;;;;;5011876;28;20037;-67
2023/08/06 13:06:10;;;;;;;0.52;0.52;;;;;;;;;;5013387;28;20053;-67
2023/08/06 13:08:36;;;;;;;0.60;0.60;;;;;;;;;;5017470;28;20504;-66
2023/08/06 13:11:02;;;;;;;0.50;0.50;;;;;;;;;;5009627;28;20053;-66
2023/08/06 13:13:28;;;;;;;0.85;0.77;;;;;;;;;;5012671;28;20077;-67
2023/08/06 13:15:54;;;;;;;0.50;0.50;;;;;;;;;;5017965;28;20102;-67
2023/08/06 13:18:20;;;;;;;0.47;0.47;;;;;;;;;;5015204;28;20538;-67
2023/08/06 13:20:48;;;;;;;0.50;0.50;;;;;;;;;;5018991;28;20037;-66
2023/08/06 13:23:16;;;;;;;0.40;0.40;;;;;;;;;;5013093;28;20496;-66
2023/08/06 13:25:42;;;;;;;0.68;0.50;;;;;;;;;;5011028;28;20057;-61
2023/08/06 13:28:08;;;;;;;0.70;0.70;;;;;;;;;;5011800;28;20042;-62
2023/08/06 13:30:35;;;;;;;0.73;0.63;;;;;;;;;;5021409;28;20604;-62
2023/08/06 13:33:04;;;;;;;0.50;0.50;;;;;;;;;;5020389;28;20388;-62
2023/08/06 13:35:30;;;;;;;0.52;0.45;;;;;;;;;;5017352;28;20567;-62
2023/08/06 13:37:56;;;;;;;0.35;0.35;;;;;;;;;;5015710;28;20058;-61
2023/08/06 13:40:22;;;;;;;1.23;0.60;;;;;;;;;;5008387;28;20107;-61
2023/08/06 13:42:48;;;;;;;0.45;0.45;;;;;;;;;;5017678;28;20549;-61
2023/08/06 13:45:14;;;;;;;0.52;0.40;;;;;;;;;;5017495;28;20044;-61
2023/08/06 13:47:40;;;;;;;0.70;0.60;;;;;;;;;;5014787;28;20057;-62
2023/08/06 13:50:06;;;;;;;0.60;0.60;;;;;;;;;;5010772;28;20044;-62
2023/08/06 13:52:32;;;;;;;0.40;0.40;;;;;;;;;;5018121;28;20029;-62
2023/08/06 13:54:58;;;;;;;0.30;0.30;;;;;;;;;;5014623;28;20061;-61
2023/08/06 13:57:24;;;;;;;0.30;0.30;;;;;;;;;;5014139;28;20063;-61
2023/08/06 13:59:50;;;;;;;0.30;0.30;;;;;;;;;;5015047;28;20132;-61
2023/08/06 14:02:16;;;;;;;0.60;0.60;;;;;;;;;;5017315;28;20679;-61
2023/08/06 14:04:42;;;;;;;0.57;0.52;;;;;;;;;;5017671;28;20037;-62
2023/08/06 14:07:09;;;;;;;0.47;0.40;;;;;;;;;;5014471;28;20118;-62
2023/08/06 14:09:35;;;;;;;0.38;0.38;;;;;;;;;;5014661;28;20121;-61
2023/08/06 14:12:01;;;;;;;0.60;0.60;;;;;;;;;;5019782;28;20065;-62
2023/08/06 14:14:27;;;;;;;0.65;0.55;;;;;;;;;;5011843;28;20044;-62
2023/08/06 14:16:54;;;;;;;0.55;0.55;;;;;;;;;;5015824;28;20073;-62
2023/08/06 14:19:20;;;;;;;0.88;0.60;;;;;;;;;;5009452;28;20108;-61
2023/08/06 14:21:46;;;;;;;0.70;0.70;;;;;;;;;;5014402;28;20224;-62
2023/08/06 14:24:12;;;;;;;0.30;0.30;;;;;;;;;;5013911;28;20492;-62
2023/08/06 14:26:39;;;;;;;0.70;0.57;;;;;;;;;;5020879;28;20542;-62
2023/08/06 14:29:05;;;;;;;0.50;0.50;;;;;;;;;;5008584;28;20046;-62
2023/08/06 14:31:31;;;;;;;0.88;0.60;;;;;;;;;;5015519;28;20103;-61
2023/08/06 14:33:57;;;;;;;0.40;0.40;;;;;;;;;;5018883;28;20053;-61
2023/08/06 14:36:23;;;;;;;0.50;0.50;;;;;;;;;;5016507;28;20041;-61
2023/08/06 14:38:49;;;;;;;0.60;0.60;;;;;;;;;;5013403;28;20034;-61